createdAt,value
2023-04-29T00:00:07.880Z,17.40
2023-04-29T00:02:34.744Z,16.37
2023-04-29T00:05:05.091Z,17.60
2023-04-29T00:07:32.429Z,19.00
2023-04-29T00:09:59.414Z,18.43
2023-04-29T00:12:26.290Z,18.80
2023-04-29T00:14:52.965Z,19.33
2023-04-29T00:17:19.621Z,19.90
2023-04-29T00:19:46.296Z,20.43
2023-04-29T00:22:12.846Z,20.57
2023-04-29T00:24:39.415Z,21.60
2023-04-29T00:27:06.533Z,22.13
2023-04-29T00:29:33.132Z,23.40
2023-04-29T00:31:59.941Z,24.23
2023-04-29T00:34:26.630Z,24.20
2023-04-29T00:36:53.250Z,22.97
2023-04-29T00:39:19.847Z,22.97
2023-04-29T00:41:46.555Z,23.10
2023-04-29T00:44:13.147Z,24.20
2023-04-29T00:46:39.907Z,24.67
2023-04-29T00:49:08.253Z,24.10
2023-04-29T00:51:36.357Z,25.53
2023-04-29T00:54:04.481Z,25.10
2023-04-29T00:56:33.887Z,25.30
2023-04-29T00:59:03.342Z,25.40
2023-04-29T01:01:30.542Z,27.13
2023-04-29T01:03:58.415Z,27.90
2023-04-29T01:06:52.723Z,32.03
2023-04-29T01:10:02.709Z,30.20
2023-04-29T01:12:48.961Z,31.33
2023-04-29T01:15:26.176Z,31.83
2023-04-29T01:18:15.758Z,30.07
2023-04-29T01:20:44.743Z,31.20
2023-04-29T01:23:12.101Z,28.40
2023-04-29T01:25:39.357Z,27.13
2023-04-29T01:28:14.784Z,25.53
2023-04-29T01:30:44.145Z,25.13
2023-04-29T01:33:28.786Z,26.60
2023-04-29T01:36:17.541Z,31.50
2023-04-29T01:39:26.438Z,29.30
2023-04-29T01:42:26.735Z,26.00
2023-04-29T01:44:56.706Z,25.33
2023-04-29T01:47:24.223Z,25.97
2023-04-29T01:49:51.108Z,25.70
2023-04-29T01:52:17.917Z,24.00
2023-04-29T01:54:44.838Z,25.73
2023-04-29T01:57:13.000Z,22.30
2023-04-29T01:59:40.064Z,22.90
2023-04-29T02:02:06.611Z,21.73
2023-04-29T02:04:34.443Z,18.47
2023-04-29T02:07:01.570Z,18.80
2023-04-29T02:09:28.173Z,19.93
2023-04-29T02:11:54.765Z,18.17
2023-04-29T02:14:21.726Z,20.27
2023-04-29T02:16:48.326Z,19.03
2023-04-29T02:19:16.625Z,19.53
2023-04-29T02:21:43.397Z,19.50
2023-04-29T02:24:10.104Z,18.83
2023-04-29T02:26:38.093Z,19.77
2023-04-29T02:29:04.811Z,17.73
2023-04-29T02:31:31.678Z,19.93
2023-04-29T02:33:58.342Z,18.10
2023-04-29T02:36:24.948Z,18.10
2023-04-29T02:38:53.919Z,17.40
2023-04-29T02:41:20.636Z,18.33
2023-04-29T02:43:48.927Z,19.50
2023-04-29T02:46:16.616Z,17.90
2023-04-29T02:48:43.267Z,17.43
2023-04-29T02:51:09.814Z,17.63
2023-04-29T02:53:36.466Z,16.70
2023-04-29T02:56:03.114Z,17.63
2023-04-29T02:58:29.696Z,17.00
2023-04-29T03:00:56.465Z,17.20
2023-04-29T03:03:23.510Z,18.87
2023-04-29T03:05:50.546Z,17.60
2023-04-29T03:08:17.088Z,18.03
2023-04-29T03:10:43.720Z,18.90
2023-04-29T03:13:10.342Z,18.33
2023-04-29T03:15:36.949Z,20.07
2023-04-29T03:18:04.826Z,19.90
2023-04-29T03:20:32.615Z,20.57
2023-04-29T03:23:00.754Z,18.27
2023-04-29T03:25:28.090Z,19.33
2023-04-29T03:27:54.669Z,20.13
2023-04-29T03:30:21.290Z,20.13
2023-04-29T03:32:47.959Z,17.80
2023-04-29T03:35:15.973Z,18.93
2023-04-29T03:37:47.242Z,19.07
2023-04-29T03:40:14.140Z,16.83
2023-04-29T03:42:41.168Z,18.47
2023-04-29T03:45:14.193Z,18.93
2023-04-29T03:47:41.346Z,19.37
2023-04-29T03:50:08.449Z,20.50
2023-04-29T03:52:38.004Z,18.87
2023-04-29T03:55:04.903Z,18.27
2023-04-29T03:57:31.512Z,18.50
2023-04-29T03:59:58.061Z,19.07
2023-04-29T04:02:24.857Z,17.43
2023-04-29T04:04:51.815Z,18.90
2023-04-29T04:07:18.499Z,20.00
2023-04-29T04:09:45.050Z,18.90
2023-04-29T04:12:11.710Z,17.93
2023-04-29T04:14:38.318Z,18.70
2023-04-29T04:17:04.892Z,17.07
2023-04-29T04:19:31.768Z,18.27
2023-04-29T04:22:01.350Z,18.80
2023-04-29T04:24:27.967Z,18.23
2023-04-29T04:26:54.799Z,18.80
2023-04-29T04:29:21.409Z,19.10
2023-04-29T04:31:48.037Z,17.13
2023-04-29T04:34:14.663Z,19.13
2023-04-29T04:36:42.160Z,19.13
2023-04-29T04:39:09.097Z,19.23
2023-04-29T04:41:35.663Z,19.20
2023-04-29T04:44:02.944Z,17.70
2023-04-29T04:46:29.687Z,17.73
2023-04-29T04:48:56.230Z,17.13
2023-04-29T04:51:22.906Z,17.70
2023-04-29T04:53:49.456Z,18.43
2023-04-29T04:56:16.100Z,18.00
2023-04-29T04:58:42.663Z,17.67
2023-04-29T05:01:09.470Z,18.23
2023-04-29T05:03:36.621Z,18.73
2023-04-29T05:06:03.576Z,18.63
2023-04-29T05:08:30.276Z,17.63
2023-04-29T05:10:58.081Z,18.13
2023-04-29T05:13:25.503Z,18.87
2023-04-29T05:15:52.052Z,18.23
2023-04-29T05:18:18.605Z,17.80
2023-04-29T05:20:45.329Z,17.67
2023-04-29T05:23:11.964Z,16.70
2023-04-29T05:25:38.537Z,18.00
2023-04-29T05:28:05.482Z,17.43
2023-04-29T05:30:32.336Z,18.40
2023-04-29T05:32:59.000Z,17.10
2023-04-29T05:35:26.336Z,17.83
2023-04-29T05:37:52.877Z,16.70
2023-04-29T05:40:19.485Z,17.07
2023-04-29T05:42:46.989Z,16.83
2023-04-29T05:45:13.685Z,16.87
2023-04-29T05:47:40.348Z,16.40
2023-04-29T05:50:07.638Z,16.80
2023-04-29T05:52:34.211Z,18.03
2023-04-29T05:55:00.851Z,16.43
2023-04-29T05:57:27.421Z,16.70
2023-04-29T05:59:55.239Z,16.73
2023-04-29T06:02:22.217Z,16.23
2023-04-29T06:04:49.317Z,16.50
2023-04-29T06:07:18.286Z,15.77
2023-04-29T06:09:46.841Z,17.50
2023-04-29T06:12:13.513Z,16.13
2023-04-29T06:14:40.300Z,16.93
2023-04-29T06:17:06.972Z,18.40
2023-04-29T06:19:33.895Z,18.00
2023-04-29T06:22:00.461Z,16.70
2023-04-29T06:24:27.006Z,20.47
2023-04-29T06:26:53.613Z,18.93
2023-04-29T06:29:20.142Z,19.00
2023-04-29T06:31:46.841Z,18.03
2023-04-29T06:34:13.778Z,18.57
2023-04-29T06:36:41.446Z,17.07
2023-04-29T06:39:07.984Z,19.63
2023-04-29T06:41:34.827Z,19.17
2023-04-29T06:44:01.409Z,19.53
2023-04-29T06:46:29.163Z,18.43
2023-04-29T06:48:55.854Z,19.73
2023-04-29T06:51:22.442Z,18.93
2023-04-29T06:53:49.119Z,19.47
2023-04-29T06:56:17.016Z,20.53
2023-04-29T06:58:43.835Z,17.97
2023-04-29T07:01:10.961Z,19.30
2023-04-29T07:03:37.934Z,19.63
2023-04-29T07:06:05.068Z,20.60
2023-04-29T07:08:32.111Z,19.27
2023-04-29T07:10:58.785Z,18.80
2023-04-29T07:13:26.060Z,20.03
2023-04-29T07:15:52.598Z,21.90
2023-04-29T07:18:19.190Z,21.10
2023-04-29T07:20:47.179Z,20.30
2023-04-29T07:23:14.723Z,19.60
2023-04-29T07:25:41.430Z,22.23
2023-04-29T07:28:11.144Z,21.10
2023-04-29T07:30:37.753Z,20.30
2023-04-29T07:33:04.556Z,21.77
2023-04-29T07:35:31.604Z,19.23
2023-04-29T07:37:58.233Z,20.23
2023-04-29T07:40:24.831Z,22.20
2023-04-29T07:42:51.445Z,21.33
2023-04-29T07:45:18.147Z,21.20
2023-04-29T07:47:45.604Z,20.83
2023-04-29T07:50:12.387Z,21.77
2023-04-29T07:52:38.970Z,21.67
2023-04-29T07:55:05.903Z,20.00
2023-04-29T07:57:32.553Z,21.20
2023-04-29T07:59:59.641Z,22.63
2023-04-29T08:02:26.365Z,20.37
2023-04-29T08:04:54.639Z,21.67
2023-04-29T08:07:21.674Z,22.63
2023-04-29T08:09:48.256Z,21.57
2023-04-29T08:12:14.846Z,20.97
2023-04-29T08:14:41.440Z,21.83
2023-04-29T08:17:08.208Z,20.50
2023-04-29T08:19:34.760Z,18.87
2023-04-29T08:22:01.360Z,19.73
2023-04-29T08:24:29.498Z,21.67
2023-04-29T08:26:56.032Z,19.23
2023-04-29T08:29:22.638Z,20.27
2023-04-29T08:31:50.074Z,19.60
2023-04-29T08:34:16.667Z,20.40
2023-04-29T08:36:43.245Z,19.80
2023-04-29T08:39:09.797Z,18.73
2023-04-29T08:41:37.085Z,19.33
2023-04-29T08:44:03.711Z,21.30
2023-04-29T08:46:31.598Z,18.93
2023-04-29T08:48:59.465Z,19.40
2023-04-29T08:51:26.548Z,20.60
2023-04-29T08:53:53.149Z,20.07
2023-04-29T08:56:23.153Z,21.90
2023-04-29T08:58:54.601Z,20.47
2023-04-29T09:01:22.895Z,19.80
2023-04-29T09:04:23.772Z,21.60
2023-04-29T09:06:51.710Z,18.63
2023-04-29T09:09:20.327Z,20.37
2023-04-29T09:11:49.822Z,19.90
2023-04-29T09:14:16.516Z,19.00
2023-04-29T09:16:47.214Z,19.00
2023-04-29T09:19:30.850Z,18.33
2023-04-29T09:21:57.541Z,19.80
2023-04-29T09:24:28.444Z,18.83
2023-04-29T09:26:55.227Z,18.80
2023-04-29T09:29:21.917Z,18.70
2023-04-29T09:31:49.535Z,17.73
2023-04-29T09:34:16.452Z,17.00
2023-04-29T09:36:50.843Z,17.77
2023-04-29T09:39:20.137Z,17.30
2023-04-29T09:41:52.717Z,17.20
2023-04-29T09:44:24.162Z,17.13
2023-04-29T09:47:03.071Z,17.30
2023-04-29T09:49:38.724Z,18.07
2023-04-29T09:52:08.101Z,18.00
2023-04-29T09:54:36.455Z,18.40
2023-04-29T09:57:05.927Z,18.60
2023-04-29T09:59:37.326Z,16.30
2023-04-29T10:02:25.401Z,15.17
2023-04-29T10:04:57.971Z,18.80
2023-04-29T10:07:27.451Z,17.07
2023-04-29T10:09:55.014Z,15.70
2023-04-29T10:12:21.715Z,16.53
2023-04-29T10:14:57.461Z,16.23
2023-04-29T10:17:33.439Z,15.30
2023-04-29T10:20:05.690Z,16.60
2023-04-29T10:22:49.987Z,16.60
2023-04-29T10:25:18.418Z,15.33
2023-04-29T10:27:46.137Z,16.20
2023-04-29T10:30:14.084Z,15.63
2023-04-29T10:32:50.364Z,16.10
2023-04-29T10:35:20.044Z,16.37
2023-04-29T10:37:49.076Z,15.47
2023-04-29T10:40:36.290Z,16.50
2023-04-29T10:43:03.048Z,13.33
2023-04-29T10:45:35.922Z,14.90
2023-04-29T10:48:02.730Z,15.03
2023-04-29T10:50:30.526Z,15.57
2023-04-29T10:52:57.817Z,13.80
2023-04-29T10:55:24.966Z,14.03
2023-04-29T10:57:58.469Z,14.33
2023-04-29T11:00:29.988Z,14.17
2023-04-29T11:02:58.243Z,12.40
2023-04-29T11:05:33.008Z,13.23
2023-04-29T11:08:24.070Z,13.13
2023-04-29T11:10:54.389Z,13.73
2023-04-29T11:13:21.682Z,13.23
2023-04-29T11:15:48.705Z,12.47
2023-04-29T11:18:15.326Z,12.97
2023-04-29T11:21:07.832Z,12.10
2023-04-29T11:23:36.279Z,13.33
2023-04-29T11:26:03.656Z,12.23
2023-04-29T11:28:32.049Z,11.80
2023-04-29T11:30:59.509Z,12.00
2023-04-29T11:33:27.809Z,12.60
2023-04-29T11:35:55.263Z,13.23
2023-04-29T11:38:28.768Z,12.43
2023-04-29T11:40:56.353Z,11.23
2023-04-29T11:43:24.447Z,11.67
2023-04-29T11:45:52.315Z,12.33
2023-04-29T11:48:19.770Z,10.50
2023-04-29T11:50:51.703Z,9.30
2023-04-29T11:53:22.134Z,10.33
2023-04-29T11:55:49.171Z,10.53
2023-04-29T11:58:16.535Z,10.30
2023-04-29T12:00:43.152Z,9.80
2023-04-29T12:03:18.061Z,10.13
2023-04-29T12:05:50.714Z,8.80
2023-04-29T12:08:28.071Z,9.33
2023-04-29T12:10:59.009Z,10.37
2023-04-29T12:13:28.381Z,9.70
2023-04-29T12:15:57.397Z,9.77
2023-04-29T12:18:24.487Z,9.50
2023-04-29T12:20:51.485Z,10.70
2023-04-29T12:23:24.680Z,9.50
2023-04-29T12:25:56.438Z,9.53
2023-04-29T12:28:23.885Z,8.00
2023-04-29T12:30:51.604Z,8.53
2023-04-29T12:33:27.688Z,8.03
2023-04-29T12:35:58.933Z,7.90
2023-04-29T12:38:28.182Z,9.37
2023-04-29T12:41:01.986Z,7.37
2023-04-29T12:43:29.749Z,7.10
2023-04-29T12:46:06.939Z,9.20
2023-04-29T12:48:34.998Z,10.13
2023-04-29T12:51:02.147Z,9.37
2023-04-29T12:53:32.488Z,8.70
2023-04-29T12:55:59.290Z,8.30
2023-04-29T12:58:30.079Z,8.30
2023-04-29T13:00:57.767Z,6.87
2023-04-29T13:03:24.878Z,7.70
2023-04-29T13:05:53.550Z,7.93
2023-04-29T13:08:20.954Z,8.43
2023-04-29T13:10:47.506Z,8.43
2023-04-29T13:13:14.053Z,8.53
2023-04-29T13:15:40.620Z,8.13
2023-04-29T13:18:07.426Z,9.10
2023-04-29T13:20:41.101Z,7.80
2023-04-29T13:23:09.258Z,7.10
2023-04-29T13:25:36.060Z,8.03
2023-04-29T13:28:02.850Z,8.83
2023-04-29T13:30:29.510Z,6.90
2023-04-29T13:33:00.528Z,8.40
2023-04-29T13:35:29.654Z,8.50
2023-04-29T13:37:56.930Z,8.57
2023-04-29T13:40:27.555Z,8.10
2023-04-29T13:43:02.603Z,8.10
2023-04-29T13:45:38.899Z,8.77
2023-04-29T13:48:16.894Z,9.03
2023-04-29T13:53:51.312Z,8.23
2023-04-29T13:59:19.579Z,7.43
2023-04-29T14:02:14.222Z,7.93
2023-04-29T14:04:11.831Z,6.87
2023-04-29T14:06:38.810Z,8.00
2023-04-29T14:09:05.376Z,7.10
2023-04-29T14:11:36.244Z,5.67
2023-04-29T14:14:03.269Z,6.67
2023-04-29T14:16:30.715Z,6.43
2023-04-29T14:18:57.395Z,6.50
2023-04-29T14:21:24.142Z,7.07
2023-04-29T14:23:51.025Z,6.90
2023-04-29T14:26:27.913Z,9.43
2023-04-29T14:28:59.242Z,7.30
2023-04-29T14:31:30.858Z,8.53
2023-04-29T14:33:58.376Z,7.40
2023-04-29T14:36:26.517Z,8.80
2023-04-29T14:38:53.254Z,8.37
2023-04-29T14:41:21.456Z,7.60
2023-04-29T14:43:48.103Z,7.73
2023-04-29T14:46:14.913Z,7.20
2023-04-29T14:48:41.574Z,6.60
2023-04-29T14:51:08.382Z,7.90
2023-04-29T14:53:35.011Z,6.50
2023-04-29T14:56:01.815Z,5.77
2023-04-29T14:58:28.378Z,7.50
2023-04-29T15:00:55.110Z,6.67
2023-04-29T15:03:23.167Z,6.20
2023-04-29T15:05:51.171Z,6.13
2023-04-29T15:08:18.912Z,5.83
2023-04-29T15:10:47.270Z,5.80
2023-04-29T15:13:13.924Z,6.10
2023-04-29T15:15:40.648Z,5.60
2023-04-29T15:18:08.722Z,6.50
2023-04-29T15:20:36.811Z,7.07
2023-04-29T15:23:03.908Z,7.17
2023-04-29T15:25:31.213Z,7.47
2023-04-29T15:27:59.007Z,6.60
2023-04-29T15:30:27.084Z,7.00
2023-04-29T15:32:55.154Z,6.27
2023-04-29T15:35:21.846Z,6.07
2023-04-29T15:37:48.763Z,6.10
2023-04-29T15:40:16.482Z,6.23
2023-04-29T15:42:43.366Z,6.10
2023-04-29T15:45:10.670Z,6.63
2023-04-29T15:47:37.302Z,6.20
2023-04-29T15:50:04.239Z,5.93
2023-04-29T15:52:30.771Z,5.47
2023-04-29T15:54:58.087Z,6.10
2023-04-29T15:57:25.764Z,5.60
2023-04-29T15:59:52.527Z,6.13
2023-04-29T16:02:20.309Z,5.10
2023-04-29T16:04:46.907Z,5.63
2023-04-29T16:07:13.634Z,5.17
2023-04-29T16:09:40.373Z,5.30
2023-04-29T16:12:07.986Z,7.83
2023-04-29T16:14:34.631Z,8.73
2023-04-29T16:17:01.392Z,6.20
2023-04-29T16:19:28.262Z,5.90
2023-04-29T16:21:57.088Z,5.53
2023-04-29T16:24:23.633Z,5.27
2023-04-29T16:26:50.627Z,5.70
2023-04-29T16:29:18.194Z,9.17
2023-04-29T16:31:44.909Z,6.60
2023-04-29T16:34:14.384Z,5.90
2023-04-29T16:36:56.607Z,6.07
2023-04-29T16:39:23.153Z,5.97
2023-04-29T16:41:49.729Z,6.53
2023-04-29T16:44:16.304Z,5.60
2023-04-29T16:46:42.995Z,5.63
2023-04-29T16:49:09.566Z,4.97
2023-04-29T16:51:36.226Z,6.20
2023-04-29T16:54:02.825Z,5.93
2023-04-29T16:56:29.375Z,4.83
2023-04-29T16:58:55.949Z,4.70
2023-04-29T17:01:22.749Z,5.70
2023-04-29T17:03:50.010Z,5.57
2023-04-29T17:06:16.777Z,5.47
2023-04-29T17:08:44.403Z,5.43
2023-04-29T17:11:11.126Z,6.10
2023-04-29T17:13:37.742Z,5.50
2023-04-29T17:16:04.717Z,5.97
2023-04-29T17:18:31.432Z,5.50
2023-04-29T17:21:00.868Z,5.63
2023-04-29T17:23:27.473Z,6.33
2023-04-29T17:25:55.270Z,7.10
2023-04-29T17:28:22.176Z,6.87
2023-04-29T17:30:48.878Z,6.70
2023-04-29T17:33:17.289Z,6.17
2023-04-29T17:35:45.074Z,5.00
2023-04-29T17:38:12.011Z,5.33
2023-04-29T17:40:38.638Z,5.53
2023-04-29T17:43:05.258Z,5.20
2023-04-29T17:45:31.978Z,6.20
2023-04-29T17:47:58.588Z,6.67
2023-04-29T17:50:25.248Z,5.87
2023-04-29T17:52:51.851Z,5.90
2023-04-29T17:55:18.683Z,5.60
2023-04-29T17:57:45.686Z,6.00
2023-04-29T18:00:12.761Z,7.00
2023-04-29T18:02:39.695Z,6.60
2023-04-29T18:05:06.758Z,6.50
2023-04-29T18:07:33.673Z,5.90
2023-04-29T18:10:00.401Z,6.20
2023-04-29T18:12:26.953Z,6.20
2023-04-29T18:14:53.498Z,6.70
2023-04-29T18:17:20.368Z,6.23
2023-04-29T18:19:49.404Z,6.60
2023-04-29T18:22:16.483Z,6.20
2023-04-29T18:24:43.329Z,6.10
2023-04-29T18:27:10.009Z,6.50
2023-04-29T18:29:36.574Z,6.93
2023-04-29T18:32:05.072Z,7.03
2023-04-29T18:34:33.113Z,6.97
2023-04-29T18:36:59.721Z,7.50
2023-04-29T18:39:26.346Z,7.10
2023-04-29T18:41:53.062Z,8.17
2023-04-29T18:44:19.624Z,8.30
2023-04-29T18:46:46.359Z,8.40
2023-04-29T18:49:16.434Z,9.27
2023-04-29T18:51:46.503Z,8.13
2023-04-29T18:54:15.262Z,8.87
2023-04-29T18:56:44.119Z,9.80
2023-04-29T18:59:12.710Z,8.50
2023-04-29T19:01:39.340Z,8.60
2023-04-29T19:04:08.019Z,8.73
2023-04-29T19:06:36.094Z,8.17
2023-04-29T19:09:03.392Z,8.90
2023-04-29T19:11:29.930Z,8.50
2023-04-29T19:13:56.544Z,7.60
2023-04-29T19:16:24.209Z,7.03
2023-04-29T19:18:51.162Z,6.90
2023-04-29T19:21:18.302Z,7.20
2023-04-29T19:23:44.900Z,7.70
2023-04-29T19:26:11.468Z,6.33
2023-04-29T19:28:38.069Z,7.40
2023-04-29T19:31:04.609Z,6.73
2023-04-29T19:33:31.304Z,6.73
2023-04-29T19:35:57.912Z,6.43
2023-04-29T19:38:25.489Z,7.13
2023-04-29T19:40:55.580Z,8.13
2023-04-29T19:43:22.741Z,7.63
2023-04-29T19:45:49.489Z,7.50
2023-04-29T19:48:16.272Z,6.97
2023-04-29T19:50:43.215Z,7.37
2023-04-29T19:53:11.258Z,5.30
2023-04-29T19:55:39.625Z,5.60
2023-04-29T19:58:06.500Z,5.80
2023-04-29T20:00:33.768Z,5.00
2023-04-29T20:03:00.529Z,4.40
2023-04-29T20:05:28.269Z,5.10
2023-04-29T20:07:55.754Z,5.33
2023-04-29T20:10:22.423Z,5.47
2023-04-29T20:12:49.028Z,5.10
2023-04-29T20:15:15.648Z,5.37
2023-04-29T20:17:42.284Z,5.07
2023-04-29T20:20:09.355Z,5.30
2023-04-29T20:22:36.062Z,5.37
2023-04-29T20:25:03.190Z,5.83
2023-04-29T20:27:29.850Z,5.33
2023-04-29T20:29:56.991Z,5.43
2023-04-29T20:32:23.980Z,5.33
2023-04-29T20:34:50.738Z,6.27
2023-04-29T20:37:17.441Z,5.90
2023-04-29T20:39:44.432Z,6.30
2023-04-29T20:42:11.021Z,7.60
2023-04-29T20:44:38.408Z,9.90
2023-04-29T20:47:05.914Z,10.13
2023-04-29T20:49:32.758Z,9.00
2023-04-29T20:51:59.813Z,7.90
2023-04-29T20:54:26.500Z,6.30
2023-04-29T20:56:53.088Z,5.40
2023-04-29T20:59:19.702Z,5.57
2023-04-29T21:01:46.437Z,5.50
2023-04-29T21:04:13.136Z,5.70
2023-04-29T21:06:40.214Z,5.33
2023-04-29T21:09:06.972Z,5.70
2023-04-29T21:11:33.501Z,5.70
2023-04-29T21:14:00.201Z,5.47
2023-04-29T21:16:26.824Z,5.00
2023-04-29T21:18:53.387Z,5.20
2023-04-29T21:21:19.989Z,5.33
2023-04-29T21:23:46.722Z,5.17
2023-04-29T21:26:14.906Z,5.20
2023-04-29T21:28:41.663Z,6.00
2023-04-29T21:31:15.074Z,5.10
2023-04-29T21:33:45.553Z,6.07
2023-04-29T21:36:13.190Z,5.53
2023-04-29T21:38:39.779Z,5.23
2023-04-29T21:41:09.879Z,5.47
2023-04-29T21:43:36.434Z,5.10
2023-04-29T21:46:03.772Z,5.50
2023-04-29T21:48:31.915Z,5.03
2023-04-29T21:50:59.833Z,5.07
2023-04-29T21:53:26.377Z,5.43
2023-04-29T21:55:54.085Z,5.43
2023-04-29T21:58:20.916Z,5.53
2023-04-29T22:00:58.192Z,5.97
2023-04-29T22:03:25.089Z,5.63
2023-04-29T22:05:51.728Z,5.20
2023-04-29T22:08:18.758Z,6.30
2023-04-29T22:10:45.354Z,5.83
2023-04-29T22:13:12.021Z,5.17
2023-04-29T22:15:38.904Z,6.63
2023-04-29T22:18:05.664Z,5.20
2023-04-29T22:20:32.762Z,5.70
2023-04-29T22:22:59.602Z,6.33
2023-04-29T22:25:26.184Z,6.43
2023-04-29T22:27:52.823Z,5.57
2023-04-29T22:30:20.490Z,6.00
2023-04-29T22:32:47.097Z,6.10
2023-04-29T22:35:13.678Z,6.20
2023-04-29T22:37:40.828Z,5.90
2023-04-29T22:40:08.172Z,6.33
2023-04-29T22:42:34.719Z,5.60
2023-04-29T22:45:01.611Z,6.97
2023-04-29T22:47:28.341Z,7.30
2023-04-29T22:49:55.049Z,6.97
2023-04-29T22:52:21.826Z,6.70
2023-04-29T22:54:48.370Z,7.60
2023-04-29T22:57:14.907Z,7.53
2023-04-29T22:59:41.481Z,7.00
2023-04-29T23:02:08.303Z,7.57
2023-04-29T23:04:34.906Z,6.67
2023-04-29T23:07:01.579Z,8.00
2023-04-29T23:09:28.154Z,6.57
2023-04-29T23:11:54.715Z,7.20
2023-04-29T23:14:21.598Z,7.13
2023-04-29T23:16:48.153Z,7.07
2023-04-29T23:19:14.710Z,8.00
2023-04-29T23:21:41.823Z,7.20
2023-04-29T23:24:08.389Z,7.60
2023-04-29T23:26:34.950Z,8.57
2023-04-29T23:29:01.561Z,8.00
2023-04-29T23:31:28.142Z,7.80
2023-04-29T23:33:54.727Z,6.67
2023-04-29T23:36:21.279Z,7.10
2023-04-29T23:38:47.879Z,7.60
2023-04-29T23:41:14.438Z,7.60
2023-04-29T23:43:41.276Z,7.47
2023-04-29T23:46:07.928Z,6.63
2023-04-29T23:48:34.508Z,7.90
2023-04-29T23:51:01.106Z,7.23
2023-04-29T23:53:27.674Z,8.07
2023-04-29T23:55:54.239Z,7.63
2023-04-29T23:58:20.800Z,7.40
